createdAt,value
2022-11-14T00:00:07.311Z,11.40
2022-11-14T00:00:17.162Z,11.40
2022-11-14T00:00:27.217Z,11.30
2022-11-14T00:00:37.337Z,11.30
2022-11-14T00:00:47.344Z,10.90
2022-11-14T00:00:57.322Z,11.00
2022-11-14T00:01:07.320Z,11.40
2022-11-14T00:01:17.352Z,11.70
2022-11-14T00:01:27.329Z,11.50
2022-11-14T00:01:37.350Z,11.10
2022-11-14T00:01:47.318Z,11.30
2022-11-14T00:01:57.294Z,11.30
2022-11-14T00:02:07.480Z,11.30
2022-11-14T00:02:17.486Z,10.70
2022-11-14T00:02:27.359Z,10.90
2022-11-14T00:02:37.260Z,10.70
2022-11-14T00:02:47.438Z,10.90
2022-11-14T00:02:57.359Z,10.90
2022-11-14T00:03:07.237Z,11.30
2022-11-14T00:03:17.459Z,11.20
2022-11-14T00:03:27.204Z,11.00
2022-11-14T00:03:37.421Z,10.70
2022-11-14T00:03:47.339Z,10.90
2022-11-14T00:03:57.315Z,11.00
2022-11-14T00:04:07.320Z,10.80
2022-11-14T00:04:17.209Z,10.70
2022-11-14T00:04:29.732Z,10.80
2022-11-14T00:04:37.299Z,10.90
2022-11-14T00:04:47.265Z,10.80
2022-11-14T00:04:57.197Z,10.60
2022-11-14T00:05:07.276Z,10.70
2022-11-14T00:05:17.186Z,10.80
2022-11-14T00:05:27.252Z,11.30
2022-11-14T00:05:37.312Z,11.20
2022-11-14T00:05:47.159Z,11.50
2022-11-14T00:05:57.192Z,11.60
2022-11-14T00:06:07.458Z,12.00
2022-11-14T00:06:17.358Z,11.80
2022-11-14T00:06:27.337Z,11.70
2022-11-14T00:06:37.407Z,11.50
2022-11-14T00:06:47.497Z,11.50
2022-11-14T00:06:57.399Z,11.60
2022-11-14T00:07:07.389Z,11.60
2022-11-14T00:07:17.392Z,11.40
2022-11-14T00:07:27.623Z,11.40
2022-11-14T00:07:37.164Z,11.80
2022-11-14T00:07:47.414Z,11.80
2022-11-14T00:07:57.309Z,11.90
2022-11-14T00:08:07.171Z,11.70
2022-11-14T00:08:17.316Z,12.00
2022-11-14T00:08:27.867Z,11.70
2022-11-14T00:08:37.334Z,11.80
2022-11-14T00:08:47.243Z,11.50
2022-11-14T00:08:57.226Z,11.80
2022-11-14T00:09:07.464Z,11.80
2022-11-14T00:09:17.456Z,11.90
2022-11-14T00:09:27.263Z,11.80
2022-11-14T00:09:37.276Z,12.00
2022-11-14T00:09:47.403Z,12.30
2022-11-14T00:09:57.243Z,12.50
2022-11-14T00:10:07.434Z,12.30
2022-11-14T00:10:17.171Z,12.00
2022-11-14T00:10:27.457Z,11.80
2022-11-14T00:10:37.203Z,12.20
2022-11-14T00:10:47.278Z,12.20
2022-11-14T00:10:57.429Z,12.00
2022-11-14T00:11:07.456Z,11.50
2022-11-14T00:11:17.213Z,11.50
2022-11-14T00:11:27.159Z,11.70
2022-11-14T00:11:37.324Z,12.30
2022-11-14T00:11:47.214Z,12.30
2022-11-14T00:11:57.455Z,11.90
2022-11-14T00:12:07.466Z,11.90
2022-11-14T00:12:17.280Z,12.00
2022-11-14T00:12:27.181Z,12.10
2022-11-14T00:12:37.265Z,12.00
2022-11-14T00:12:47.365Z,11.80
2022-11-14T00:12:57.362Z,12.00
2022-11-14T00:13:07.388Z,11.70
2022-11-14T00:13:17.375Z,12.10
2022-11-14T00:13:27.187Z,11.90
2022-11-14T00:13:37.342Z,12.20
2022-11-14T00:13:47.447Z,11.90
2022-11-14T00:13:57.172Z,11.90
2022-11-14T00:14:07.344Z,11.50
2022-11-14T00:14:17.376Z,11.40
2022-11-14T00:14:27.366Z,11.50
2022-11-14T00:14:37.381Z,11.90
2022-11-14T00:14:47.193Z,12.10
2022-11-14T00:14:57.412Z,12.30
2022-11-14T00:15:07.263Z,11.80
2022-11-14T00:15:17.430Z,11.60
2022-11-14T00:15:27.357Z,11.90
2022-11-14T00:15:37.269Z,12.00
2022-11-14T00:15:47.205Z,11.90
2022-11-14T00:15:57.161Z,11.40
2022-11-14T00:16:07.449Z,11.50
2022-11-14T00:16:17.416Z,11.40
2022-11-14T00:16:27.427Z,11.30
2022-11-14T00:16:37.283Z,11.30
2022-11-14T00:16:47.194Z,11.40
2022-11-14T00:16:57.364Z,11.40
2022-11-14T00:17:07.392Z,11.60
2022-11-14T00:17:17.359Z,11.70
2022-11-14T00:17:27.217Z,11.90
2022-11-14T00:17:37.417Z,12.00
2022-11-14T00:17:47.277Z,11.80
2022-11-14T00:17:57.192Z,11.70
2022-11-14T00:18:07.285Z,11.60
2022-11-14T00:18:17.287Z,11.70
2022-11-14T00:18:27.535Z,11.60
2022-11-14T00:18:37.182Z,11.60
2022-11-14T00:18:47.328Z,11.50
2022-11-14T00:18:57.231Z,11.50
2022-11-14T00:19:07.164Z,11.40
2022-11-14T00:19:17.153Z,11.60
2022-11-14T00:19:27.307Z,11.70
2022-11-14T00:19:37.287Z,11.60
2022-11-14T00:19:47.362Z,11.30
2022-11-14T00:19:57.384Z,10.80
2022-11-14T00:20:07.178Z,11.20
2022-11-14T00:20:17.353Z,11.60
2022-11-14T00:20:27.326Z,11.90
2022-11-14T00:20:37.152Z,11.40
2022-11-14T00:20:47.367Z,11.20
2022-11-14T00:20:57.315Z,10.90
2022-11-14T00:21:07.263Z,10.90
2022-11-14T00:21:17.364Z,11.10
2022-11-14T00:21:27.486Z,11.40
2022-11-14T00:21:37.393Z,11.60
2022-11-14T00:21:47.478Z,11.70
2022-11-14T00:21:57.325Z,11.40
2022-11-14T00:22:07.397Z,11.30
2022-11-14T00:22:17.435Z,10.80
2022-11-14T00:22:27.220Z,11.50
2022-11-14T00:22:37.222Z,11.60
2022-11-14T00:22:47.205Z,12.10
2022-11-14T00:22:57.444Z,11.90
2022-11-14T00:23:07.370Z,11.40
2022-11-14T00:23:17.173Z,10.90
2022-11-14T00:23:27.314Z,10.80
2022-11-14T00:23:37.401Z,11.10
2022-11-14T00:23:47.439Z,11.40
2022-11-14T00:23:57.296Z,11.40
2022-11-14T00:24:07.270Z,11.50
2022-11-14T00:24:17.339Z,11.90
2022-11-14T00:24:27.435Z,12.10
2022-11-14T00:24:37.253Z,12.00
2022-11-14T00:24:47.288Z,12.00
2022-11-14T00:24:57.349Z,11.70
2022-11-14T00:25:07.357Z,11.80
2022-11-14T00:25:17.357Z,11.80
2022-11-14T00:25:27.246Z,11.80
2022-11-14T00:25:37.245Z,11.50
2022-11-14T00:25:47.410Z,10.90
2022-11-14T00:25:57.181Z,11.10
2022-11-14T00:26:07.346Z,11.60
2022-11-14T00:26:17.391Z,11.80
2022-11-14T00:26:27.225Z,11.90
2022-11-14T00:26:37.198Z,11.50
2022-11-14T00:26:47.469Z,12.20
2022-11-14T00:26:57.369Z,12.20
2022-11-14T00:27:07.282Z,12.50
2022-11-14T00:27:17.314Z,11.90
2022-11-14T00:27:27.190Z,11.60
2022-11-14T00:27:37.457Z,11.60
2022-11-14T00:27:47.234Z,11.60
2022-11-14T00:27:57.313Z,11.80
2022-11-14T00:28:07.291Z,11.80
2022-11-14T00:28:17.278Z,11.90
2022-11-14T00:28:27.395Z,12.00
2022-11-14T00:28:37.378Z,12.10
2022-11-14T00:28:47.323Z,11.70
2022-11-14T00:28:57.271Z,11.70
2022-11-14T00:29:07.321Z,11.50
2022-11-14T00:29:17.208Z,11.60
2022-11-14T00:29:27.403Z,11.60
2022-11-14T00:29:37.168Z,11.70
2022-11-14T00:29:47.306Z,11.70
2022-11-14T00:29:57.299Z,11.80
2022-11-14T00:30:07.344Z,12.10
2022-11-14T00:30:17.331Z,12.50
2022-11-14T00:30:27.179Z,12.50
2022-11-14T00:30:37.206Z,12.20
2022-11-14T00:30:47.260Z,12.10
2022-11-14T00:30:57.169Z,12.00
2022-11-14T00:31:07.200Z,12.30
2022-11-14T00:31:17.356Z,12.40
2022-11-14T00:31:27.370Z,12.60
2022-11-14T00:31:37.377Z,12.40
2022-11-14T00:31:47.333Z,11.60
2022-11-14T00:31:57.417Z,11.60
2022-11-14T00:32:08.183Z,11.40
2022-11-14T00:32:17.375Z,11.80
2022-11-14T00:32:27.360Z,11.70
2022-11-14T00:32:37.414Z,12.00
2022-11-14T00:32:47.284Z,12.30
2022-11-14T00:32:57.499Z,12.60
2022-11-14T00:33:07.268Z,12.50
2022-11-14T00:33:20.531Z,12.20
2022-11-14T00:33:27.215Z,11.90
2022-11-14T00:33:37.440Z,11.90
2022-11-14T00:33:47.180Z,12.00
2022-11-14T00:33:57.215Z,12.10
2022-11-14T00:34:07.198Z,12.30
2022-11-14T00:34:17.323Z,12.70
2022-11-14T00:34:27.308Z,12.50
2022-11-14T00:34:37.290Z,12.20
2022-11-14T00:34:47.294Z,12.10
2022-11-14T00:34:57.250Z,12.20
2022-11-14T00:35:07.186Z,12.70
2022-11-14T00:35:17.213Z,12.60
2022-11-14T00:35:27.343Z,12.30
2022-11-14T00:35:37.445Z,12.10
2022-11-14T00:35:47.329Z,11.90
2022-11-14T00:35:57.381Z,12.10
2022-11-14T00:36:07.321Z,11.90
2022-11-14T00:36:17.292Z,11.80
2022-11-14T00:36:27.237Z,11.90
2022-11-14T00:36:37.190Z,11.80
2022-11-14T00:36:47.341Z,11.50
2022-11-14T00:36:57.321Z,11.80
2022-11-14T00:37:07.163Z,11.90
2022-11-14T00:37:17.378Z,11.90
2022-11-14T00:37:27.261Z,11.40
2022-11-14T00:37:37.247Z,11.30
2022-11-14T00:37:47.310Z,11.70
2022-11-14T00:37:57.377Z,12.00
2022-11-14T00:38:07.252Z,11.80
2022-11-14T00:38:17.287Z,11.60
2022-11-14T00:38:27.729Z,11.60
2022-11-14T00:38:37.376Z,11.60
2022-11-14T00:38:47.253Z,11.40
2022-11-14T00:38:57.179Z,11.40
2022-11-14T00:39:07.294Z,11.30
2022-11-14T00:39:17.273Z,11.40
2022-11-14T00:39:27.311Z,11.20
2022-11-14T00:39:37.388Z,11.60
2022-11-14T00:39:47.428Z,12.00
2022-11-14T00:39:57.285Z,11.80
2022-11-14T00:40:07.339Z,12.10
2022-11-14T00:40:17.320Z,11.60
2022-11-14T00:40:27.274Z,11.80
2022-11-14T00:40:37.203Z,11.10
2022-11-14T00:40:47.358Z,11.00
2022-11-14T00:40:57.459Z,11.10
2022-11-14T00:41:07.434Z,11.30
2022-11-14T00:41:17.323Z,11.40
2022-11-14T00:41:27.273Z,11.20
2022-11-14T00:41:37.342Z,11.20
2022-11-14T00:41:47.374Z,11.40
2022-11-14T00:41:57.237Z,11.60
2022-11-14T00:42:07.336Z,11.60
2022-11-14T00:42:17.344Z,11.40
2022-11-14T00:42:27.305Z,11.30
2022-11-14T00:42:37.396Z,11.20
2022-11-14T00:42:47.381Z,11.20
2022-11-14T00:42:57.419Z,11.00
2022-11-14T00:43:07.251Z,11.30
2022-11-14T00:43:17.255Z,11.70
2022-11-14T00:43:27.390Z,11.80
2022-11-14T00:43:37.388Z,11.30
2022-11-14T00:43:47.267Z,11.10
2022-11-14T00:43:57.289Z,10.90
2022-11-14T00:44:07.385Z,11.10
2022-11-14T00:44:17.433Z,11.20
2022-11-14T00:44:27.460Z,11.40
2022-11-14T00:44:37.360Z,11.70
2022-11-14T00:44:47.494Z,11.40
2022-11-14T00:44:57.249Z,11.40
2022-11-14T00:45:07.360Z,11.00
2022-11-14T00:45:17.404Z,11.00
2022-11-14T00:45:27.248Z,11.30
2022-11-14T00:45:37.164Z,11.50
2022-11-14T00:45:47.214Z,11.40
2022-11-14T00:45:57.432Z,11.30
2022-11-14T00:46:07.301Z,11.40
2022-11-14T00:46:17.219Z,11.30
2022-11-14T00:46:27.431Z,11.40
2022-11-14T00:46:37.323Z,11.10
2022-11-14T00:46:47.278Z,11.30
2022-11-14T00:46:57.189Z,11.60
2022-11-14T00:47:07.452Z,11.70
2022-11-14T00:47:17.404Z,11.80
2022-11-14T00:47:27.317Z,11.50
2022-11-14T00:47:37.225Z,11.60
2022-11-14T00:47:47.370Z,11.40
2022-11-14T00:47:57.264Z,11.20
2022-11-14T00:48:07.319Z,11.20
2022-11-14T00:48:17.351Z,11.40
2022-11-14T00:48:27.759Z,11.90
2022-11-14T00:48:37.185Z,11.90
2022-11-14T00:48:47.263Z,11.60
2022-11-14T00:48:57.218Z,11.50
2022-11-14T00:49:07.422Z,11.60
2022-11-14T00:49:17.286Z,11.70
2022-11-14T00:49:27.447Z,11.70
2022-11-14T00:49:37.291Z,11.70
2022-11-14T00:49:47.399Z,11.80
2022-11-14T00:49:57.339Z,11.70
2022-11-14T00:50:07.164Z,11.60
2022-11-14T00:50:17.175Z,11.60
2022-11-14T00:50:27.387Z,11.70
2022-11-14T00:50:37.309Z,11.90
2022-11-14T00:50:47.432Z,11.50
2022-11-14T00:50:57.164Z,11.10
2022-11-14T00:51:07.356Z,11.00
2022-11-14T00:51:17.166Z,11.20
2022-11-14T00:51:27.427Z,10.80
2022-11-14T00:51:37.161Z,11.20
2022-11-14T00:51:47.237Z,11.20
2022-11-14T00:51:57.408Z,11.40
2022-11-14T00:52:07.275Z,11.50
2022-11-14T00:52:17.377Z,11.70
2022-11-14T00:52:27.419Z,11.90
2022-11-14T00:52:37.269Z,11.80
2022-11-14T00:52:47.427Z,11.40
2022-11-14T00:52:57.324Z,11.00
2022-11-14T00:53:07.215Z,10.70
2022-11-14T00:53:17.238Z,10.90
2022-11-14T00:53:27.399Z,11.30
2022-11-14T00:53:37.245Z,11.20
2022-11-14T00:53:47.180Z,11.10
2022-11-14T00:53:57.420Z,11.00
2022-11-14T00:54:07.360Z,11.40
2022-11-14T00:54:17.379Z,11.50
2022-11-14T00:54:27.214Z,11.40
2022-11-14T00:54:37.241Z,11.50
2022-11-14T00:54:47.260Z,11.60
2022-11-14T00:54:57.448Z,12.00
2022-11-14T00:55:07.329Z,11.90
2022-11-14T00:55:17.390Z,11.70
2022-11-14T00:55:27.408Z,11.10
2022-11-14T00:55:37.392Z,11.10
2022-11-14T00:55:47.398Z,10.90
2022-11-14T00:55:57.378Z,10.90
2022-11-14T00:56:07.408Z,11.00
2022-11-14T00:56:17.404Z,11.00
2022-11-14T00:56:27.397Z,11.40
2022-11-14T00:56:37.348Z,11.30
2022-11-14T00:56:47.209Z,11.70
2022-11-14T00:56:57.211Z,11.70
2022-11-14T00:57:07.275Z,12.30
2022-11-14T00:57:17.289Z,11.80
2022-11-14T00:57:27.441Z,11.30
2022-11-14T00:57:37.216Z,10.70
2022-11-14T00:57:47.181Z,10.90
2022-11-14T00:57:57.158Z,11.40
2022-11-14T00:58:07.198Z,11.70
2022-11-14T00:58:17.398Z,11.40
2022-11-14T00:58:27.526Z,11.50
2022-11-14T00:58:37.321Z,11.70
2022-11-14T00:58:47.420Z,11.60
2022-11-14T00:58:57.154Z,11.50
2022-11-14T00:59:07.295Z,11.30
2022-11-14T00:59:17.329Z,11.10
2022-11-14T00:59:27.225Z,10.90
2022-11-14T00:59:37.355Z,10.80
2022-11-14T00:59:47.223Z,10.80
2022-11-14T00:59:57.256Z,11.20
2022-11-14T01:00:07.343Z,11.50
2022-11-14T01:00:17.247Z,11.50
2022-11-14T01:00:27.400Z,11.10
2022-11-14T01:00:37.266Z,10.90
2022-11-14T01:00:47.276Z,11.30
2022-11-14T01:00:57.283Z,11.40
2022-11-14T01:01:07.416Z,11.40
2022-11-14T01:01:17.321Z,11.00
2022-11-14T01:01:27.377Z,10.90
2022-11-14T01:01:37.285Z,11.10
2022-11-14T01:01:47.332Z,11.10
2022-11-14T01:01:58.162Z,11.00
2022-11-14T01:02:07.410Z,10.90
2022-11-14T01:02:17.486Z,11.00
2022-11-14T01:02:27.192Z,11.10
2022-11-14T01:02:37.239Z,10.70
2022-11-14T01:02:47.156Z,10.70
2022-11-14T01:02:57.232Z,10.70
2022-11-14T01:03:07.431Z,11.00
2022-11-14T01:03:17.431Z,11.10
2022-11-14T01:03:27.210Z,11.10
2022-11-14T01:03:37.425Z,11.00
2022-11-14T01:03:47.383Z,10.60
2022-11-14T01:03:57.532Z,10.70
2022-11-14T01:04:07.329Z,11.10
2022-11-14T01:04:17.424Z,11.30
2022-11-14T01:04:27.254Z,11.10
2022-11-14T01:04:37.428Z,11.00
2022-11-14T01:04:47.293Z,11.20
2022-11-14T01:04:57.407Z,11.40
2022-11-14T01:05:07.499Z,10.90
2022-11-14T01:05:17.207Z,11.00
2022-11-14T01:05:27.264Z,10.80
2022-11-14T01:05:37.415Z,10.80
2022-11-14T01:05:47.365Z,10.30
2022-11-14T01:05:57.445Z,10.50
2022-11-14T01:06:07.396Z,10.90
2022-11-14T01:06:17.231Z,10.80
2022-11-14T01:06:27.340Z,11.10
2022-11-14T01:06:37.377Z,11.10
2022-11-14T01:06:47.316Z,11.60
2022-11-14T01:06:57.186Z,11.40
2022-11-14T01:07:07.238Z,11.20
2022-11-14T01:07:17.290Z,11.00
2022-11-14T01:07:27.309Z,11.20
2022-11-14T01:07:37.283Z,11.00
2022-11-14T01:07:47.384Z,10.90
2022-11-14T01:07:57.436Z,10.70
2022-11-14T01:08:07.344Z,10.90
2022-11-14T01:08:17.316Z,10.90
2022-11-14T01:08:27.579Z,10.60
2022-11-14T01:08:37.158Z,10.60
2022-11-14T01:08:47.283Z,10.50
2022-11-14T01:08:57.513Z,10.50
2022-11-14T01:09:07.406Z,10.70
2022-11-14T01:09:17.373Z,11.00
2022-11-14T01:09:27.339Z,10.90
2022-11-14T01:09:37.183Z,10.70
2022-11-14T01:09:47.209Z,10.60
2022-11-14T01:09:57.218Z,10.80
2022-11-14T01:10:07.270Z,10.50
2022-11-14T01:10:17.404Z,10.60
2022-11-14T01:10:27.398Z,10.60
2022-11-14T01:10:37.493Z,10.90
2022-11-14T01:10:47.490Z,10.60
2022-11-14T01:10:57.218Z,10.60
2022-11-14T01:11:07.176Z,10.50
2022-11-14T01:11:17.265Z,10.50
2022-11-14T01:11:27.241Z,10.70
2022-11-14T01:11:37.408Z,10.40
2022-11-14T01:11:47.201Z,10.50
2022-11-14T01:11:57.292Z,10.10
2022-11-14T01:12:07.458Z,10.30
2022-11-14T01:12:17.320Z,10.20
2022-11-14T01:12:27.225Z,10.20
2022-11-14T01:12:37.190Z,10.10
2022-11-14T01:12:47.221Z,10.00
2022-11-14T01:12:57.360Z,9.90
2022-11-14T01:13:07.313Z,9.90
2022-11-14T01:13:17.452Z,10.10
2022-11-14T01:13:27.313Z,10.30
2022-11-14T01:13:37.421Z,10.60
2022-11-14T01:13:47.385Z,10.60
2022-11-14T01:13:57.366Z,10.50
2022-11-14T01:14:07.358Z,9.90
2022-11-14T01:14:17.363Z,9.90
2022-11-14T01:14:27.350Z,10.00
2022-11-14T01:14:37.404Z,10.30
2022-11-14T01:14:47.166Z,9.90
2022-11-14T01:14:57.161Z,9.70
2022-11-14T01:15:07.420Z,9.40
2022-11-14T01:15:17.275Z,9.60
2022-11-14T01:15:27.403Z,9.50
2022-11-14T01:15:37.361Z,9.80
2022-11-14T01:15:47.359Z,10.30
2022-11-14T01:15:57.299Z,10.00
2022-11-14T01:16:07.198Z,9.80
2022-11-14T01:16:17.244Z,9.60
2022-11-14T01:16:27.466Z,9.60
2022-11-14T01:16:37.411Z,9.70
2022-11-14T01:16:47.325Z,9.80
2022-11-14T01:16:57.273Z,10.10
2022-11-14T01:17:07.442Z,10.10
2022-11-14T01:17:17.324Z,9.90
2022-11-14T01:17:27.418Z,9.80
2022-11-14T01:17:37.338Z,9.80
2022-11-14T01:17:47.247Z,9.90
2022-11-14T01:17:57.368Z,9.80
2022-11-14T01:18:07.363Z,10.20
2022-11-14T01:18:17.275Z,10.30
2022-11-14T01:18:27.468Z,10.40
2022-11-14T01:18:37.275Z,10.30
2022-11-14T01:18:47.258Z,10.10
2022-11-14T01:18:57.364Z,10.20
2022-11-14T01:19:07.413Z,10.10
2022-11-14T01:19:17.191Z,10.40
2022-11-14T01:19:27.271Z,10.20
2022-11-14T01:19:37.152Z,10.10
2022-11-14T01:19:47.329Z,10.00
2022-11-14T01:19:57.381Z,10.10
2022-11-14T01:20:07.169Z,10.20
2022-11-14T01:20:17.335Z,10.10
2022-11-14T01:20:27.241Z,10.30
2022-11-14T01:20:37.372Z,10.10
2022-11-14T01:20:47.305Z,9.90
2022-11-14T01:20:57.422Z,9.40
2022-11-14T01:21:07.358Z,9.40
2022-11-14T01:21:17.413Z,9.60
2022-11-14T01:21:27.334Z,9.60
2022-11-14T01:21:37.249Z,9.70
2022-11-14T01:21:47.244Z,9.50
2022-11-14T01:21:59.613Z,10.00
2022-11-14T01:22:07.373Z,9.80
2022-11-14T01:22:17.281Z,9.90
2022-11-14T01:22:27.236Z,9.80
2022-11-14T01:22:37.175Z,10.10
2022-11-14T01:22:47.375Z,10.20
2022-11-14T01:22:57.344Z,10.10
2022-11-14T01:23:07.407Z,10.30
2022-11-14T01:23:17.258Z,10.20
2022-11-14T01:23:27.325Z,10.10
2022-11-14T01:23:37.445Z,9.70
2022-11-14T01:23:47.159Z,9.70
2022-11-14T01:23:57.273Z,9.90
2022-11-14T01:24:07.346Z,10.00
2022-11-14T01:24:17.263Z,10.00
2022-11-14T01:24:27.334Z,9.80
2022-11-14T01:24:37.371Z,10.00
2022-11-14T01:24:47.261Z,10.30
2022-11-14T01:24:57.197Z,10.50
2022-11-14T01:25:07.318Z,10.20
2022-11-14T01:25:17.486Z,9.90
2022-11-14T01:25:27.328Z,9.60
2022-11-14T01:25:37.317Z,9.80
2022-11-14T01:25:47.417Z,9.70
2022-11-14T01:25:57.336Z,10.10
2022-11-14T01:26:07.186Z,10.40
2022-11-14T01:26:17.346Z,10.20
2022-11-14T01:26:27.200Z,10.00
2022-11-14T01:26:37.444Z,9.70
2022-11-14T01:26:47.342Z,9.90
2022-11-14T01:26:57.370Z,10.10
2022-11-14T01:27:07.247Z,9.70
2022-11-14T01:27:17.176Z,9.60
2022-11-14T01:27:27.306Z,9.50
2022-11-14T01:27:37.271Z,9.60
2022-11-14T01:27:47.214Z,9.70
2022-11-14T01:27:57.425Z,9.60
2022-11-14T01:28:07.370Z,9.60
2022-11-14T01:28:17.272Z,9.60
2022-11-14T01:28:27.893Z,9.30
2022-11-14T01:28:37.209Z,9.40
2022-11-14T01:28:47.324Z,9.40
2022-11-14T01:28:57.347Z,9.50
2022-11-14T01:29:07.217Z,9.70
2022-11-14T01:29:17.431Z,9.80
2022-11-14T01:29:27.431Z,9.70
2022-11-14T01:29:37.242Z,9.60
2022-11-14T01:29:47.304Z,9.60
2022-11-14T01:29:57.366Z,9.80
2022-11-14T01:30:07.286Z,10.00
2022-11-14T01:30:17.409Z,9.90
2022-11-14T01:30:27.203Z,9.60
2022-11-14T01:30:37.174Z,9.20
2022-11-14T01:30:47.399Z,9.50
2022-11-14T01:30:57.290Z,9.30
2022-11-14T01:31:07.339Z,9.40
2022-11-14T01:31:17.169Z,9.00
2022-11-14T01:31:27.226Z,9.20
2022-11-14T01:31:37.446Z,9.30
2022-11-14T01:31:47.195Z,9.20
2022-11-14T01:31:57.400Z,9.10
2022-11-14T01:32:07.222Z,9.00
2022-11-14T01:32:17.188Z,8.80
2022-11-14T01:32:27.335Z,8.90
2022-11-14T01:32:37.157Z,9.30
2022-11-14T01:32:50.883Z,9.50
2022-11-14T01:32:57.324Z,9.30
2022-11-14T01:33:07.261Z,9.10
2022-11-14T01:33:17.368Z,9.30
2022-11-14T01:33:27.168Z,9.70
2022-11-14T01:33:37.468Z,9.50
2022-11-14T01:33:47.403Z,9.30
2022-11-14T01:33:57.170Z,9.10
2022-11-14T01:34:07.358Z,9.20
2022-11-14T01:34:17.172Z,9.40
2022-11-14T01:34:27.347Z,9.20
2022-11-14T01:34:37.243Z,9.10
2022-11-14T01:34:47.291Z,9.00
2022-11-14T01:34:57.280Z,9.10
2022-11-14T01:35:08.167Z,9.20
2022-11-14T01:35:17.470Z,9.20
2022-11-14T01:35:27.239Z,9.20
2022-11-14T01:35:37.182Z,8.90
2022-11-14T01:35:47.233Z,8.70
2022-11-14T01:35:57.354Z,8.30
2022-11-14T01:36:07.210Z,8.40
2022-11-14T01:36:17.227Z,8.40
2022-11-14T01:36:27.261Z,8.50
2022-11-14T01:36:37.329Z,8.60
2022-11-14T01:36:47.250Z,8.80
2022-11-14T01:36:57.462Z,9.00
2022-11-14T01:37:07.390Z,9.00
2022-11-14T01:37:17.191Z,9.10
2022-11-14T01:37:27.347Z,8.60
2022-11-14T01:37:37.333Z,8.40
2022-11-14T01:37:47.434Z,7.90
2022-11-14T01:37:57.356Z,8.20
2022-11-14T01:38:07.257Z,8.40
2022-11-14T01:38:17.266Z,9.00
2022-11-14T01:38:27.693Z,8.70
2022-11-14T01:38:37.172Z,8.90
2022-11-14T01:38:47.433Z,8.60
2022-11-14T01:38:57.423Z,8.80
2022-11-14T01:39:07.327Z,8.70
2022-11-14T01:39:17.429Z,8.60
2022-11-14T01:39:27.233Z,8.70
2022-11-14T01:39:37.292Z,8.30
2022-11-14T01:39:47.220Z,8.20
2022-11-14T01:39:57.346Z,8.10
2022-11-14T01:40:07.395Z,8.30
2022-11-14T01:40:17.326Z,8.90
2022-11-14T01:40:27.401Z,9.20
2022-11-14T01:40:37.284Z,9.10
2022-11-14T01:40:47.186Z,8.70
2022-11-14T01:40:57.261Z,8.60
2022-11-14T01:41:07.322Z,8.50
2022-11-14T01:41:17.480Z,8.30
2022-11-14T01:41:27.221Z,8.60
2022-11-14T01:41:37.353Z,8.90
2022-11-14T01:41:47.293Z,9.00
2022-11-14T01:41:57.431Z,8.90
2022-11-14T01:42:07.229Z,8.70
2022-11-14T01:42:17.791Z,8.80
2022-11-14T01:42:27.776Z,8.80
2022-11-14T01:42:37.440Z,8.80
2022-11-14T01:42:47.272Z,8.80
2022-11-14T01:42:57.347Z,8.90
2022-11-14T01:43:07.375Z,9.00
2022-11-14T01:43:17.265Z,8.90
2022-11-14T01:43:27.323Z,8.60
2022-11-14T01:43:37.174Z,8.70
2022-11-14T01:43:47.316Z,8.60
2022-11-14T01:43:57.210Z,8.30
2022-11-14T01:44:07.225Z,8.50
2022-11-14T01:44:17.186Z,8.50
2022-11-14T01:44:27.207Z,8.70
2022-11-14T01:44:37.179Z,8.60
2022-11-14T01:44:47.283Z,8.70
2022-11-14T01:44:57.196Z,9.10
2022-11-14T01:45:07.370Z,8.80
2022-11-14T01:45:17.302Z,8.60
2022-11-14T01:45:27.289Z,8.30
2022-11-14T01:45:37.272Z,8.50
2022-11-14T01:45:47.274Z,8.60
2022-11-14T01:45:57.414Z,8.60
2022-11-14T01:46:07.349Z,8.50
2022-11-14T01:46:17.396Z,8.40
2022-11-14T01:46:27.260Z,8.40
2022-11-14T01:46:37.320Z,8.30
2022-11-14T01:46:47.314Z,8.40
2022-11-14T01:46:57.479Z,8.30
2022-11-14T01:47:07.347Z,8.40
2022-11-14T01:47:17.430Z,8.30
2022-11-14T01:47:27.219Z,8.30
2022-11-14T01:47:37.367Z,8.50
2022-11-14T01:47:47.195Z,8.70
2022-11-14T01:47:57.419Z,8.40
2022-11-14T01:48:07.195Z,8.60
2022-11-14T01:48:17.246Z,8.40
2022-11-14T01:48:27.728Z,8.50
2022-11-14T01:48:37.408Z,8.50
2022-11-14T01:48:47.286Z,8.60
2022-11-14T01:48:57.240Z,8.70
2022-11-14T01:49:07.237Z,8.70
2022-11-14T01:49:17.426Z,8.70
2022-11-14T01:49:27.158Z,8.60
2022-11-14T01:49:37.632Z,8.70
2022-11-14T01:49:47.453Z,8.60
2022-11-14T01:49:57.282Z,8.50
2022-11-14T01:50:07.457Z,8.40
2022-11-14T01:50:17.182Z,8.40
2022-11-14T01:50:27.156Z,8.60
2022-11-14T01:50:37.162Z,8.70
2022-11-14T01:50:47.208Z,8.50
2022-11-14T01:50:57.339Z,8.20
2022-11-14T01:51:07.293Z,8.10
2022-11-14T01:51:17.370Z,8.00
2022-11-14T01:51:27.206Z,8.30
2022-11-14T01:51:37.288Z,8.60
2022-11-14T01:51:47.296Z,8.50
2022-11-14T01:51:57.244Z,8.40
2022-11-14T01:52:07.412Z,8.10
2022-11-14T01:52:17.422Z,8.10
2022-11-14T01:52:27.236Z,8.50
2022-11-14T01:52:37.418Z,8.80
2022-11-14T01:52:47.459Z,9.00
2022-11-14T01:52:57.308Z,8.60
2022-11-14T01:53:07.471Z,8.40
2022-11-14T01:53:17.404Z,8.50
2022-11-14T01:53:27.383Z,8.50
2022-11-14T01:53:37.219Z,8.90
2022-11-14T01:53:47.364Z,8.70
2022-11-14T01:53:57.209Z,8.90
2022-11-14T01:54:07.377Z,8.70
2022-11-14T01:54:17.162Z,9.00
2022-11-14T01:54:27.867Z,8.60
2022-11-14T01:54:37.396Z,8.50
2022-11-14T01:54:47.290Z,8.40
2022-11-14T01:54:57.203Z,8.50
2022-11-14T01:55:07.281Z,8.30
2022-11-14T01:55:17.298Z,8.30
2022-11-14T01:55:27.274Z,8.40
2022-11-14T01:55:37.268Z,8.30
2022-11-14T01:55:47.200Z,8.30
2022-11-14T01:55:57.439Z,8.40
2022-11-14T01:56:07.213Z,8.70
2022-11-14T01:56:17.430Z,8.90
2022-11-14T01:56:27.194Z,9.10
2022-11-14T01:56:37.225Z,9.20
2022-11-14T01:56:47.206Z,8.90
2022-11-14T01:56:57.190Z,8.60
2022-11-14T01:57:07.252Z,8.50
2022-11-14T01:57:17.182Z,8.30
2022-11-14T01:57:27.177Z,8.60
2022-11-14T01:57:37.461Z,8.90
2022-11-14T01:57:47.541Z,9.20
2022-11-14T01:57:57.395Z,8.80
2022-11-14T01:58:07.359Z,8.40
2022-11-14T01:58:17.256Z,8.10
2022-11-14T01:58:27.447Z,8.50
2022-11-14T01:58:37.282Z,9.00
2022-11-14T01:58:47.463Z,9.00
2022-11-14T01:58:57.424Z,8.80
2022-11-14T01:59:07.158Z,8.50
2022-11-14T01:59:17.211Z,8.50
2022-11-14T01:59:27.353Z,8.50
2022-11-14T01:59:37.367Z,8.20
2022-11-14T01:59:47.424Z,8.70
2022-11-14T01:59:57.430Z,8.60
2022-11-14T02:00:07.321Z,8.90
2022-11-14T02:00:17.409Z,8.60
2022-11-14T02:00:27.413Z,9.00
2022-11-14T02:00:37.213Z,9.00
2022-11-14T02:00:47.391Z,9.20
2022-11-14T02:00:57.210Z,9.30
2022-11-14T02:01:07.254Z,9.20
2022-11-14T02:01:17.271Z,9.10
2022-11-14T02:01:27.423Z,8.80
2022-11-14T02:01:37.254Z,8.80
2022-11-14T02:01:47.417Z,8.80
2022-11-14T02:01:57.452Z,9.10
2022-11-14T02:02:07.173Z,9.30
2022-11-14T02:02:17.216Z,9.40
2022-11-14T02:02:27.329Z,9.30
2022-11-14T02:02:37.440Z,9.40
2022-11-14T02:02:47.359Z,9.80
2022-11-14T02:02:57.223Z,9.90
2022-11-14T02:03:07.392Z,10.10
2022-11-14T02:03:17.444Z,10.00
2022-11-14T02:03:27.454Z,9.90
2022-11-14T02:03:37.239Z,9.60
2022-11-14T02:03:47.260Z,9.30
2022-11-14T02:03:57.194Z,9.50
2022-11-14T02:04:08.863Z,9.40
2022-11-14T02:04:17.435Z,9.40
2022-11-14T02:04:27.341Z,9.50
2022-11-14T02:04:37.242Z,9.40
2022-11-14T02:04:47.390Z,9.30
2022-11-14T02:04:57.412Z,9.20
2022-11-14T02:05:07.389Z,9.50
2022-11-14T02:05:17.424Z,9.60
2022-11-14T02:05:27.313Z,9.40
2022-11-14T02:05:37.539Z,9.70
2022-11-14T02:05:47.195Z,9.70
2022-11-14T02:05:57.341Z,10.00
2022-11-14T02:06:07.432Z,9.60
2022-11-14T02:06:17.395Z,9.40
2022-11-14T02:06:27.419Z,9.20
2022-11-14T02:06:37.160Z,9.00
2022-11-14T02:06:47.389Z,9.40
2022-11-14T02:06:57.367Z,9.70
2022-11-14T02:07:07.266Z,10.00
2022-11-14T02:07:17.317Z,10.00
2022-11-14T02:07:27.403Z,9.80
2022-11-14T02:07:37.445Z,9.60
2022-11-14T02:07:47.261Z,9.40
2022-11-14T02:07:57.311Z,9.40
2022-11-14T02:08:07.526Z,9.30
2022-11-14T02:08:17.305Z,9.50
2022-11-14T02:08:27.644Z,9.70
2022-11-14T02:08:37.401Z,10.10
2022-11-14T02:08:47.377Z,9.80
2022-11-14T02:08:57.238Z,9.90
2022-11-14T02:09:07.257Z,9.60
2022-11-14T02:09:17.483Z,9.80
2022-11-14T02:09:27.369Z,9.40
2022-11-14T02:09:37.201Z,9.70
2022-11-14T02:09:47.408Z,9.60
2022-11-14T02:09:57.362Z,9.50
2022-11-14T02:10:07.430Z,9.20
2022-11-14T02:10:17.453Z,9.40
2022-11-14T02:10:27.415Z,9.70